createdAt,value
2022-10-04T00:05:11.845Z,10.24
2022-10-04T00:10:23.657Z,10.18
2022-10-04T00:15:29.328Z,10.14
2022-10-04T00:20:53.539Z,10.12
2022-10-04T00:26:03.588Z,10.09
2022-10-04T00:31:17.409Z,10.05
2022-10-04T00:36:25.180Z,10.03
2022-10-04T00:41:28.586Z,9.98
2022-10-04T00:46:31.190Z,9.98
2022-10-04T00:51:38.226Z,9.92
2022-10-04T00:56:52.559Z,9.92
2022-10-04T01:02:08.291Z,9.82
2022-10-04T01:07:14.154Z,9.92
2022-10-04T01:12:36.570Z,10.08
2022-10-04T01:17:38.129Z,10.18
2022-10-04T01:22:50.199Z,10.33
2022-10-04T01:27:52.876Z,10.35
2022-10-04T01:32:54.357Z,10.42
2022-10-04T01:37:56.062Z,10.49
2022-10-04T01:43:05.797Z,10.65
2022-10-04T01:48:15.477Z,10.73
2022-10-04T01:53:24.312Z,10.84
2022-10-04T01:58:31.541Z,10.92
2022-10-04T02:03:42.065Z,10.99
2022-10-04T02:08:50.591Z,11.08
2022-10-04T02:13:54.762Z,11.11
2022-10-04T02:18:56.598Z,11.16
2022-10-04T02:23:58.220Z,11.17
2022-10-04T02:28:59.677Z,11.17
2022-10-04T02:34:01.304Z,11.20
2022-10-04T02:39:05.047Z,11.17
2022-10-04T02:44:25.806Z,11.18
2022-10-04T02:49:33.658Z,11.19
2022-10-04T02:55:02.824Z,11.22
2022-10-04T03:00:31.168Z,11.23
2022-10-04T03:05:32.923Z,11.14
2022-10-04T03:10:35.816Z,11.20
2022-10-04T03:15:38.960Z,11.32
2022-10-04T03:20:41.245Z,11.32
2022-10-04T03:26:03.484Z,11.34
2022-10-04T03:31:05.624Z,11.41
2022-10-04T03:36:12.498Z,11.43
2022-10-04T03:41:14.849Z,11.49
2022-10-04T03:46:19.393Z,11.46
2022-10-04T03:51:23.906Z,11.06
2022-10-04T03:56:34.518Z,10.91
2022-10-04T04:01:38.947Z,10.96
2022-10-04T04:06:53.060Z,11.00
2022-10-04T04:11:57.942Z,10.96
2022-10-04T04:17:38.268Z,11.08
2022-10-04T04:22:44.168Z,11.16
2022-10-04T04:27:49.495Z,11.16
2022-10-04T04:32:55.709Z,11.18
2022-10-04T04:38:26.465Z,11.15
2022-10-04T04:43:28.180Z,11.13
2022-10-04T04:48:29.978Z,11.23
2022-10-04T04:53:31.472Z,11.23
2022-10-04T04:58:38.653Z,11.24
2022-10-04T05:03:40.066Z,11.27
2022-10-04T05:08:50.097Z,11.31
2022-10-04T05:13:56.992Z,11.35
2022-10-04T05:19:24.061Z,11.29
2022-10-04T05:24:28.232Z,11.30
2022-10-04T05:29:35.897Z,11.30
2022-10-04T05:34:45.318Z,11.33
2022-10-04T05:39:52.572Z,11.39
2022-10-04T05:44:56.343Z,11.44
2022-10-04T05:50:00.857Z,11.50
2022-10-04T05:55:16.033Z,11.55
2022-10-04T06:00:24.551Z,11.53
2022-10-04T06:05:50.265Z,11.56
2022-10-04T06:11:02.889Z,11.60
2022-10-04T06:16:22.695Z,11.58
2022-10-04T06:21:35.718Z,11.56
2022-10-04T06:26:52.253Z,11.53
2022-10-04T06:32:39.034Z,11.61
2022-10-04T06:37:47.680Z,11.71
2022-10-04T06:43:01.284Z,11.82
2022-10-04T06:48:23.734Z,11.87
2022-10-04T06:53:34.471Z,11.95
2022-10-04T06:58:50.306Z,11.97
2022-10-04T07:04:10.303Z,12.08
2022-10-04T07:09:25.992Z,11.89
2022-10-04T07:14:44.938Z,11.92
2022-10-04T07:19:49.381Z,12.02
2022-10-04T07:25:03.602Z,11.87
2022-10-04T07:30:16.227Z,12.05
2022-10-04T07:35:43.856Z,12.18
2022-10-04T07:41:09.981Z,12.32
2022-10-04T07:46:44.036Z,12.43
2022-10-04T07:52:22.825Z,12.55
2022-10-04T07:57:48.983Z,12.64
2022-10-04T08:03:19.720Z,12.90
2022-10-04T08:08:54.271Z,13.01
2022-10-04T08:14:16.784Z,13.19
2022-10-04T08:19:41.091Z,13.19
2022-10-04T08:25:11.412Z,13.06
2022-10-04T08:30:16.865Z,13.40
2022-10-04T08:35:39.424Z,13.58
2022-10-04T08:40:50.043Z,13.80
2022-10-04T08:46:21.634Z,13.95
2022-10-04T08:51:38.082Z,13.98
2022-10-04T08:56:51.908Z,14.24
2022-10-04T09:02:13.564Z,14.44
2022-10-04T09:07:38.538Z,14.48
2022-10-04T09:13:00.285Z,14.70
2022-10-04T09:18:22.409Z,14.77
2022-10-04T09:23:45.246Z,14.85
2022-10-04T09:29:18.979Z,15.08
2022-10-04T09:34:47.478Z,15.31
2022-10-04T09:39:55.055Z,15.45
2022-10-04T09:45:27.637Z,15.62
2022-10-04T09:50:41.752Z,15.64
2022-10-04T09:55:52.506Z,15.76
2022-10-04T10:01:16.768Z,15.94
2022-10-04T10:06:56.688Z,15.93
2022-10-04T10:12:31.431Z,16.03
2022-10-04T10:17:40.085Z,16.24
2022-10-04T10:23:03.049Z,16.40
2022-10-04T10:28:25.825Z,16.56
2022-10-04T10:33:45.933Z,16.84
2022-10-04T10:39:30.166Z,16.88
2022-10-04T10:44:47.770Z,16.90
2022-10-04T10:50:17.683Z,16.99
2022-10-04T10:55:28.158Z,17.25
2022-10-04T11:00:47.589Z,17.35
2022-10-04T11:06:07.638Z,17.40
2022-10-04T11:11:27.367Z,17.45
2022-10-04T11:16:47.620Z,17.46
2022-10-04T11:22:36.056Z,17.70
2022-10-04T11:28:02.374Z,17.84
2022-10-04T11:33:42.465Z,17.99
2022-10-04T11:38:48.486Z,18.09
2022-10-04T11:44:21.494Z,18.53
2022-10-04T11:49:41.975Z,18.84
2022-10-04T11:54:52.338Z,19.21
2022-10-04T12:00:20.564Z,19.57
2022-10-04T12:05:49.887Z,19.90
2022-10-04T12:11:06.502Z,20.32
2022-10-04T12:16:32.460Z,20.51
2022-10-04T12:22:00.651Z,20.63
2022-10-04T12:27:21.548Z,20.87
2022-10-04T12:32:30.610Z,21.28
2022-10-04T12:37:53.714Z,21.29
2022-10-04T12:43:11.747Z,21.66
2022-10-04T12:48:25.649Z,21.99
2022-10-04T12:53:44.277Z,22.44
2022-10-04T12:59:27.238Z,22.68
2022-10-04T13:04:35.907Z,23.16
2022-10-04T13:10:22.630Z,23.23
2022-10-04T13:15:23.172Z,23.58
2022-10-04T13:20:36.585Z,23.42
2022-10-04T13:26:04.034Z,23.50
2022-10-04T13:31:34.625Z,23.70
2022-10-04T13:36:54.709Z,23.61
2022-10-04T13:42:31.672Z,23.88
2022-10-04T13:48:14.364Z,23.23
2022-10-04T13:53:54.819Z,23.24
2022-10-04T13:59:34.535Z,23.26
2022-10-04T14:05:16.995Z,23.25
2022-10-04T14:11:01.265Z,22.49
2022-10-04T14:16:34.421Z,22.73
2022-10-04T14:22:04.071Z,22.78
2022-10-04T14:27:39.364Z,22.90
2022-10-04T14:33:01.974Z,22.88
2022-10-04T14:38:32.693Z,22.89
2022-10-04T14:43:59.287Z,22.93
2022-10-04T14:49:25.385Z,22.96
2022-10-04T14:54:38.756Z,22.93
2022-10-04T14:59:53.607Z,22.89
2022-10-04T15:05:06.146Z,23.32
2022-10-04T15:10:20.471Z,23.14
2022-10-04T15:15:46.112Z,22.97
2022-10-04T15:20:57.037Z,22.61
2022-10-04T15:26:10.397Z,22.54
2022-10-04T15:31:28.599Z,22.38
2022-10-04T15:37:17.037Z,22.15
2022-10-04T15:42:21.260Z,22.07
2022-10-04T15:47:37.056Z,22.00
2022-10-04T15:52:49.275Z,21.90
2022-10-04T15:58:26.951Z,21.82
2022-10-04T16:03:48.560Z,21.69
2022-10-04T16:09:08.246Z,21.58
2022-10-04T16:14:21.782Z,21.41
2022-10-04T16:19:39.238Z,21.20
2022-10-04T16:24:42.232Z,21.03
2022-10-04T16:30:14.608Z,20.80
2022-10-04T16:35:18.069Z,20.55
2022-10-04T16:40:32.572Z,20.32
2022-10-04T16:45:52.347Z,20.11
2022-10-04T16:51:00.631Z,19.94
2022-10-04T16:56:18.302Z,19.74
2022-10-04T17:01:22.465Z,19.53
2022-10-04T17:06:35.832Z,19.32
2022-10-04T17:11:43.818Z,19.10
2022-10-04T17:16:57.750Z,18.86
2022-10-04T17:22:23.393Z,18.59
2022-10-04T17:27:45.851Z,18.36
2022-10-04T17:33:07.525Z,18.11
2022-10-04T17:38:37.983Z,17.84
2022-10-04T17:44:05.195Z,17.64
2022-10-04T17:49:52.609Z,17.41
2022-10-04T17:55:17.278Z,17.22
2022-10-04T18:00:23.487Z,16.99
2022-10-04T18:05:44.370Z,16.79
2022-10-04T18:10:59.518Z,16.67
2022-10-04T18:16:43.379Z,16.49
2022-10-04T18:21:49.006Z,16.38
2022-10-04T18:26:59.629Z,16.23
2022-10-04T18:32:17.572Z,16.06
2022-10-04T18:37:28.069Z,15.92
2022-10-04T18:42:35.181Z,15.78
2022-10-04T18:47:39.502Z,15.67
2022-10-04T18:53:07.109Z,15.54
2022-10-04T18:58:51.149Z,15.39
2022-10-04T19:03:59.853Z,15.27
2022-10-04T19:09:23.108Z,15.18
2022-10-04T19:14:27.229Z,15.07
2022-10-04T19:20:03.272Z,14.93
2022-10-04T19:25:16.854Z,14.86
2022-10-04T19:30:26.497Z,14.75
2022-10-04T19:35:43.828Z,14.71
2022-10-04T19:40:50.747Z,14.64
2022-10-04T19:46:24.003Z,14.55
2022-10-04T19:51:38.234Z,14.43
2022-10-04T19:56:47.080Z,14.38
2022-10-04T20:01:49.906Z,14.29
2022-10-04T20:06:56.571Z,14.22
2022-10-04T20:11:59.452Z,14.13
2022-10-04T20:17:01.010Z,14.03
2022-10-04T20:22:08.467Z,13.84
2022-10-04T20:27:22.519Z,13.80
2022-10-04T20:32:26.722Z,13.78
2022-10-04T20:37:58.912Z,13.69
2022-10-04T20:43:14.590Z,13.62
2022-10-04T20:48:20.668Z,13.53
2022-10-04T20:53:24.976Z,13.48
2022-10-04T20:58:35.407Z,13.42
2022-10-04T21:03:37.182Z,13.37
2022-10-04T21:08:39.625Z,13.33
2022-10-04T21:13:54.597Z,13.28
2022-10-04T21:19:38.771Z,13.19
2022-10-04T21:24:41.511Z,13.13
2022-10-04T21:29:42.908Z,13.08
2022-10-04T21:34:59.602Z,13.04
2022-10-04T21:40:01.234Z,12.99
2022-10-04T21:45:02.711Z,12.94
2022-10-04T21:50:04.348Z,12.90
2022-10-04T21:55:10.673Z,12.85
2022-10-04T22:00:12.582Z,12.81
2022-10-04T22:05:14.475Z,12.79
2022-10-04T22:10:16.759Z,12.75
2022-10-04T22:15:18.187Z,12.70
2022-10-04T22:20:19.958Z,12.66
2022-10-04T22:25:23.836Z,12.62
2022-10-04T22:30:31.066Z,12.55
2022-10-04T22:35:34.632Z,12.51
2022-10-04T22:40:36.531Z,12.46
2022-10-04T22:45:37.948Z,12.37
2022-10-04T22:50:39.520Z,12.29
2022-10-04T22:55:41.519Z,12.22
2022-10-04T23:00:44.716Z,12.11
2022-10-04T23:05:46.040Z,12.09
2022-10-04T23:10:47.455Z,12.06
2022-10-04T23:15:48.856Z,12.02
2022-10-04T23:20:57.917Z,11.98
2022-10-04T23:25:59.312Z,11.92
2022-10-04T23:31:19.977Z,11.85
2022-10-04T23:36:22.543Z,11.77
2022-10-04T23:41:23.919Z,11.73
2022-10-04T23:46:25.375Z,11.67
2022-10-04T23:51:27.200Z,11.63
2022-10-04T23:56:29.469Z,11.58
